createdAt,value
2023-01-29T00:00:28.999Z,55.53
2023-01-29T00:02:00.227Z,53.25
2023-01-29T00:03:52.006Z,53.95
2023-01-29T00:04:26.570Z,54.74
2023-01-29T00:05:10.002Z,55.50
2023-01-29T00:05:49.856Z,56.08
2023-01-29T00:06:25.860Z,57.05
2023-01-29T00:06:59.449Z,57.23
2023-01-29T00:08:10.330Z,58.26
2023-01-29T00:09:21.106Z,59.10
2023-01-29T00:11:09.734Z,61.03
2023-01-29T00:12:20.473Z,61.62
2023-01-29T00:12:53.346Z,62.12
2023-01-29T00:13:26.215Z,62.39
2023-01-29T00:14:36.973Z,63.13
2023-01-29T00:15:09.946Z,63.77
2023-01-29T00:16:58.793Z,58.63
2023-01-29T00:17:31.640Z,58.17
2023-01-29T00:18:42.733Z,55.34
2023-01-29T00:19:15.703Z,54.65
2023-01-29T00:21:36.860Z,56.07
2023-01-29T00:22:09.787Z,56.42
2023-01-29T00:23:20.654Z,57.51
2023-01-29T00:25:47.985Z,59.38
2023-01-29T00:26:21.180Z,60.20
2023-01-29T00:27:31.867Z,60.83
2023-01-29T00:28:04.975Z,61.29
2023-01-29T00:28:37.950Z,61.59
2023-01-29T00:30:08.618Z,62.35
2023-01-29T00:30:41.591Z,62.59
2023-01-29T00:31:16.313Z,63.50
2023-01-29T00:31:49.439Z,64.35
2023-01-29T00:32:22.575Z,63.80
2023-01-29T00:32:55.560Z,63.02
2023-01-29T00:33:29.124Z,60.66
2023-01-29T00:34:39.777Z,55.62
2023-01-29T00:36:28.521Z,53.79
2023-01-29T00:37:04.942Z,53.89
2023-01-29T00:37:38.250Z,54.30
2023-01-29T00:38:11.199Z,54.97
2023-01-29T00:38:44.420Z,55.50
2023-01-29T00:39:17.376Z,56.23
2023-01-29T00:39:50.347Z,56.58
2023-01-29T00:41:33.874Z,57.83
2023-01-29T00:42:25.694Z,57.42
2023-01-29T00:43:17.075Z,58.64
2023-01-29T00:44:08.807Z,59.41
2023-01-29T00:45:38.821Z,60.46
2023-01-29T00:46:12.019Z,61.06
2023-01-29T00:46:45.199Z,61.48
2023-01-29T00:47:33.947Z,61.93
2023-01-29T00:48:07.210Z,62.23
2023-01-29T00:49:17.886Z,63.30
2023-01-29T00:50:28.630Z,62.12
2023-01-29T00:51:40.185Z,60.73
2023-01-29T00:52:25.224Z,58.82
2023-01-29T00:53:35.993Z,55.44
2023-01-29T00:54:08.937Z,54.50
2023-01-29T00:54:41.789Z,54.47
2023-01-29T00:55:52.451Z,55.09
2023-01-29T00:56:26.139Z,55.91
2023-01-29T00:56:59.062Z,56.47
2023-01-29T00:58:10.333Z,57.72
2023-01-29T00:59:21.091Z,58.79
2023-01-29T01:02:06.125Z,60.21
2023-01-29T01:02:57.884Z,61.17
2023-01-29T01:04:12.510Z,61.44
2023-01-29T01:04:45.410Z,62.04
2023-01-29T01:05:18.750Z,62.56
2023-01-29T01:05:51.657Z,62.99
2023-01-29T01:07:02.312Z,63.49
2023-01-29T01:07:35.210Z,62.78
2023-01-29T01:08:27.996Z,61.54
2023-01-29T01:09:19.121Z,58.57
2023-01-29T01:10:10.718Z,56.91
2023-01-29T01:10:44.425Z,54.50
2023-01-29T01:11:17.389Z,54.06
2023-01-29T01:11:50.395Z,54.05
2023-01-29T01:13:03.174Z,54.75
2023-01-29T01:14:14.336Z,56.00
2023-01-29T01:17:32.879Z,59.09
2023-01-29T01:18:43.641Z,60.36
2023-01-29T01:19:54.575Z,61.19
2023-01-29T01:20:28.633Z,61.49
2023-01-29T01:21:39.407Z,61.99
2023-01-29T01:22:12.383Z,62.46
2023-01-29T01:23:23.170Z,63.63
2023-01-29T01:23:56.131Z,63.50
2023-01-29T01:24:31.223Z,62.62
2023-01-29T01:25:04.464Z,63.21
2023-01-29T01:26:53.499Z,55.98
2023-01-29T01:27:26.615Z,54.70
2023-01-29T01:28:31.492Z,53.42
2023-01-29T01:30:59.576Z,54.84
2023-01-29T01:32:10.298Z,56.57
2023-01-29T01:33:22.662Z,57.46
2023-01-29T01:35:11.707Z,59.12
2023-01-29T01:35:44.655Z,59.80
2023-01-29T01:36:18.542Z,60.12
2023-01-29T01:36:51.530Z,60.36
2023-01-29T01:38:44.693Z,61.52
2023-01-29T01:39:17.739Z,61.49
2023-01-29T01:40:29.224Z,62.20
2023-01-29T01:42:19.519Z,63.60
2023-01-29T01:42:56.792Z,61.99
2023-01-29T01:43:48.602Z,62.75
2023-01-29T01:45:15.634Z,61.39
2023-01-29T01:45:48.689Z,56.88
2023-01-29T01:47:01.043Z,53.83
2023-01-29T01:49:56.931Z,55.57
2023-01-29T01:50:33.591Z,56.02
2023-01-29T01:51:06.620Z,56.44
2023-01-29T01:52:19.108Z,57.80
2023-01-29T01:54:06.042Z,58.37
2023-01-29T01:54:38.974Z,59.47
2023-01-29T01:55:55.987Z,60.53
2023-01-29T01:56:40.544Z,60.78
2023-01-29T01:57:17.325Z,60.89
2023-01-29T01:58:47.887Z,61.90
2023-01-29T01:59:20.846Z,61.83
2023-01-29T02:00:00.136Z,62.50
2023-01-29T02:00:33.224Z,63.27
2023-01-29T02:01:06.985Z,64.22
2023-01-29T02:02:39.545Z,63.06
2023-01-29T02:03:31.199Z,60.32
2023-01-29T02:04:30.243Z,59.60
2023-01-29T02:05:21.578Z,55.06
2023-01-29T02:06:13.735Z,54.50
2023-01-29T02:08:01.696Z,54.84
2023-01-29T02:09:15.055Z,55.82
2023-01-29T02:10:37.846Z,58.21
2023-01-29T02:11:10.779Z,58.97
2023-01-29T02:12:21.634Z,60.07
2023-01-29T02:13:32.487Z,60.23
2023-01-29T02:15:58.983Z,62.12
2023-01-29T02:17:16.594Z,63.11
2023-01-29T02:18:27.295Z,62.94
2023-01-29T02:20:16.479Z,57.27
2023-01-29T02:21:01.679Z,55.60
2023-01-29T02:23:44.376Z,55.61
2023-01-29T02:24:50.439Z,56.58
2023-01-29T02:25:42.343Z,57.59
2023-01-29T02:27:38.362Z,59.22
2023-01-29T02:29:25.377Z,61.03
2023-01-29T02:30:01.028Z,61.88
2023-01-29T02:30:34.499Z,62.20
2023-01-29T02:31:31.973Z,62.79
2023-01-29T02:32:17.511Z,64.30
2023-01-29T02:33:02.537Z,62.55
2023-01-29T02:33:57.052Z,62.68
2023-01-29T02:34:32.578Z,58.68
2023-01-29T02:35:28.487Z,57.05
2023-01-29T02:36:04.149Z,56.28
2023-01-29T02:37:03.314Z,55.81
2023-01-29T02:37:47.646Z,55.65
2023-01-29T02:39:44.177Z,57.92
2023-01-29T02:40:37.167Z,58.88
2023-01-29T02:41:27.296Z,59.69
2023-01-29T02:42:02.428Z,60.13
2023-01-29T02:42:39.191Z,61.02
2023-01-29T02:43:35.709Z,62.02
2023-01-29T02:44:38.582Z,63.05
2023-01-29T02:45:16.202Z,62.96
2023-01-29T02:45:49.057Z,62.69
2023-01-29T02:46:24.972Z,61.35
2023-01-29T02:47:58.986Z,58.86
2023-01-29T02:48:41.683Z,57.23
2023-01-29T02:49:30.317Z,56.72
2023-01-29T02:51:11.183Z,58.31
2023-01-29T02:52:44.824Z,60.55
2023-01-29T02:54:06.721Z,62.92
2023-01-29T02:54:47.350Z,64.15
2023-01-29T02:55:26.283Z,64.37
2023-01-29T02:58:44.507Z,57.84
2023-01-29T02:59:20.606Z,56.96
2023-01-29T03:00:03.363Z,57.04
2023-01-29T03:00:38.802Z,57.72
2023-01-29T03:01:16.286Z,57.93
2023-01-29T03:01:52.488Z,58.75
2023-01-29T03:03:40.548Z,60.32
2023-01-29T03:04:18.770Z,62.23
2023-01-29T03:06:06.471Z,64.53
2023-01-29T03:07:42.843Z,62.39
2023-01-29T03:08:16.910Z,61.42
2023-01-29T03:09:14.987Z,61.06
2023-01-29T03:11:58.858Z,56.79
2023-01-29T03:13:15.524Z,57.72
2023-01-29T03:15:01.312Z,60.17
2023-01-29T03:16:27.383Z,62.84
2023-01-29T03:17:51.919Z,64.22
2023-01-29T03:18:27.899Z,63.43
2023-01-29T03:20:26.605Z,61.29
2023-01-29T03:22:01.763Z,57.18
2023-01-29T03:23:23.989Z,55.41
2023-01-29T03:24:15.952Z,55.85
2023-01-29T03:25:15.911Z,56.87
2023-01-29T03:26:08.136Z,58.06
2023-01-29T03:26:59.650Z,58.65
2023-01-29T03:28:05.692Z,59.41
2023-01-29T03:28:57.199Z,61.79
2023-01-29T03:31:25.191Z,63.47
2023-01-29T03:32:04.349Z,63.08
2023-01-29T03:32:38.797Z,61.76
2023-01-29T03:33:54.167Z,58.09
2023-01-29T03:34:34.993Z,56.30
2023-01-29T03:35:09.116Z,55.79
2023-01-29T03:35:47.653Z,56.26
2023-01-29T03:36:38.017Z,56.88
2023-01-29T03:37:15.580Z,57.42
2023-01-29T03:38:31.870Z,59.59
2023-01-29T03:39:06.483Z,60.29
2023-01-29T03:39:39.639Z,61.58
2023-01-29T03:40:51.852Z,62.93
2023-01-29T03:44:18.105Z,64.21
2023-01-29T03:44:53.926Z,61.52
2023-01-29T03:45:29.733Z,58.50
2023-01-29T03:46:46.975Z,55.60
2023-01-29T03:48:13.716Z,56.23
2023-01-29T03:49:03.273Z,57.00
2023-01-29T03:49:59.399Z,58.28
2023-01-29T03:50:38.809Z,58.61
2023-01-29T03:52:15.885Z,61.49
2023-01-29T03:52:51.930Z,63.39
2023-01-29T03:53:38.523Z,64.01
2023-01-29T03:54:18.974Z,63.86
2023-01-29T03:55:11.899Z,63.34
2023-01-29T03:56:02.408Z,63.48
2023-01-29T03:56:57.489Z,60.83
2023-01-29T03:57:58.354Z,57.30
2023-01-29T03:58:42.555Z,56.30
2023-01-29T03:59:20.540Z,56.46
2023-01-29T04:00:52.700Z,57.49
2023-01-29T04:04:17.149Z,61.77
2023-01-29T04:04:52.084Z,63.11
2023-01-29T04:05:26.314Z,64.26
2023-01-29T04:06:50.386Z,66.68
2023-01-29T04:09:48.562Z,57.20
2023-01-29T04:12:32.047Z,57.66
2023-01-29T04:13:10.614Z,58.56
2023-01-29T04:13:43.783Z,59.48
2023-01-29T04:14:17.162Z,60.16
2023-01-29T04:15:30.152Z,62.14
2023-01-29T04:16:42.396Z,63.48
2023-01-29T04:17:56.502Z,63.50
2023-01-29T04:18:29.550Z,62.59
2023-01-29T04:19:40.549Z,59.79
2023-01-29T04:20:13.945Z,59.72
2023-01-29T04:20:47.066Z,57.45
2023-01-29T04:21:20.280Z,57.03
2023-01-29T04:21:56.219Z,56.84
2023-01-29T04:23:23.263Z,57.60
2023-01-29T04:23:56.390Z,58.23
2023-01-29T04:24:29.589Z,59.39
2023-01-29T04:25:08.625Z,60.67
2023-01-29T04:26:28.857Z,61.91
2023-01-29T04:27:12.329Z,63.30
2023-01-29T04:28:08.957Z,64.39
2023-01-29T04:30:18.903Z,64.07
2023-01-29T04:31:52.625Z,59.31
2023-01-29T04:32:32.926Z,57.34
2023-01-29T04:33:21.788Z,55.97
2023-01-29T04:34:16.498Z,56.20
2023-01-29T04:34:59.522Z,56.13
2023-01-29T04:35:47.813Z,58.05
2023-01-29T04:36:39.626Z,58.72
2023-01-29T04:37:17.719Z,60.35
2023-01-29T04:37:56.634Z,61.19
2023-01-29T04:40:20.505Z,64.41
2023-01-29T04:41:09.658Z,64.35
2023-01-29T04:41:46.519Z,62.58
2023-01-29T04:43:05.232Z,59.45
2023-01-29T04:44:33.643Z,56.86
2023-01-29T04:45:17.057Z,56.35
2023-01-29T04:46:08.784Z,56.79
2023-01-29T04:46:49.126Z,58.19
2023-01-29T04:48:07.869Z,60.02
2023-01-29T04:48:40.831Z,61.00
2023-01-29T04:49:36.235Z,62.30
2023-01-29T04:50:22.247Z,63.63
2023-01-29T04:51:01.224Z,64.63
2023-01-29T04:52:33.485Z,64.26
2023-01-29T04:53:40.252Z,63.84
2023-01-29T04:54:26.440Z,61.44
2023-01-29T04:55:06.783Z,58.92
2023-01-29T04:56:37.602Z,56.10
2023-01-29T04:57:13.465Z,56.59
2023-01-29T04:58:13.745Z,57.24
2023-01-29T04:58:52.165Z,58.35
2023-01-29T04:59:33.636Z,59.89
2023-01-29T05:02:08.163Z,64.89
2023-01-29T05:03:19.068Z,63.91
2023-01-29T05:03:51.992Z,62.07
2023-01-29T05:05:02.650Z,61.21
2023-01-29T05:06:51.987Z,56.77
2023-01-29T05:07:25.187Z,56.75
2023-01-29T05:07:58.136Z,57.24
2023-01-29T05:08:31.239Z,57.67
2023-01-29T05:11:37.813Z,62.44
2023-01-29T05:12:51.913Z,64.64
2023-01-29T05:14:03.713Z,64.95
2023-01-29T05:14:36.667Z,63.03
2023-01-29T05:15:12.528Z,62.33
2023-01-29T05:15:49.696Z,60.85
2023-01-29T05:17:05.051Z,57.90
2023-01-29T05:17:37.953Z,57.41
2023-01-29T05:18:48.721Z,57.13
2023-01-29T05:20:17.209Z,58.91
2023-01-29T05:20:50.472Z,59.86
2023-01-29T05:22:39.883Z,63.25
2023-01-29T05:23:20.279Z,64.39
2023-01-29T05:25:32.744Z,63.01
2023-01-29T05:26:06.073Z,61.94
2023-01-29T05:26:57.365Z,60.66
2023-01-29T05:27:51.724Z,59.84
2023-01-29T05:31:03.103Z,58.08
2023-01-29T05:31:36.237Z,59.48
2023-01-29T05:32:09.281Z,60.36
2023-01-29T05:33:30.877Z,61.70
2023-01-29T05:35:19.661Z,64.87
2023-01-29T05:36:30.910Z,63.41
2023-01-29T05:37:41.908Z,60.59
2023-01-29T05:38:15.158Z,59.89
2023-01-29T05:38:48.127Z,58.56
2023-01-29T05:39:21.308Z,58.12
2023-01-29T05:40:33.731Z,57.13
2023-01-29T05:41:06.710Z,58.06
2023-01-29T05:41:39.641Z,58.79
2023-01-29T05:42:51.074Z,60.54
2023-01-29T05:45:18.908Z,64.02
2023-01-29T05:45:56.553Z,64.40
2023-01-29T05:46:29.548Z,64.79
2023-01-29T05:47:05.179Z,62.44
2023-01-29T05:47:38.254Z,61.36
2023-01-29T05:48:11.329Z,60.85
2023-01-29T05:48:46.120Z,59.31
2023-01-29T05:49:20.630Z,57.81
2023-01-29T05:49:53.630Z,57.23
2023-01-29T05:50:26.912Z,56.87
2023-01-29T05:51:01.428Z,56.93
2023-01-29T05:52:49.966Z,59.48
2023-01-29T05:53:22.932Z,60.46
2023-01-29T05:55:11.523Z,63.55
2023-01-29T05:56:23.776Z,64.17
2023-01-29T05:56:56.643Z,63.67
2023-01-29T05:57:29.617Z,63.40
2023-01-29T05:58:40.375Z,60.41
2023-01-29T05:59:51.286Z,57.87
2023-01-29T06:01:12.233Z,56.43
2023-01-29T06:01:45.259Z,56.35
2023-01-29T06:02:18.302Z,56.92
2023-01-29T06:02:51.353Z,57.77
2023-01-29T06:03:24.402Z,58.31
2023-01-29T06:03:57.293Z,59.63
2023-01-29T06:05:08.984Z,61.18
2023-01-29T06:06:19.854Z,63.31
2023-01-29T06:07:30.560Z,64.46
2023-01-29T06:08:41.668Z,63.21
2023-01-29T06:09:52.531Z,60.78
2023-01-29T06:12:19.372Z,56.93
2023-01-29T06:13:30.233Z,58.24
2023-01-29T06:14:42.018Z,60.05
2023-01-29T06:15:53.679Z,62.04
2023-01-29T06:16:26.807Z,62.48
2023-01-29T06:16:59.849Z,63.46
2023-01-29T06:18:10.448Z,64.74
2023-01-29T06:19:59.053Z,61.68
2023-01-29T06:21:11.653Z,57.60
2023-01-29T06:22:22.409Z,56.64
2023-01-29T06:22:55.283Z,56.82
2023-01-29T06:23:28.211Z,57.62
2023-01-29T06:24:01.269Z,58.53
2023-01-29T06:25:49.973Z,61.43
2023-01-29T06:27:00.735Z,62.55
2023-01-29T06:28:11.389Z,64.47
2023-01-29T06:28:46.207Z,63.84
2023-01-29T06:29:19.076Z,63.94
2023-01-29T06:29:52.048Z,62.65
2023-01-29T06:31:23.840Z,59.73
2023-01-29T06:31:56.733Z,59.21
2023-01-29T06:32:29.797Z,57.69
2023-01-29T06:33:03.128Z,57.08
2023-01-29T06:33:36.087Z,57.59
2023-01-29T06:34:08.970Z,58.09
2023-01-29T06:35:19.937Z,59.37
2023-01-29T06:35:59.974Z,60.56
2023-01-29T06:36:32.879Z,61.51
2023-01-29T06:37:06.223Z,62.20
2023-01-29T06:37:39.046Z,63.40
2023-01-29T06:39:27.440Z,64.51
2023-01-29T06:40:39.121Z,62.17
2023-01-29T06:41:19.258Z,60.30
2023-01-29T06:41:52.231Z,59.27
2023-01-29T06:42:28.253Z,58.64
2023-01-29T06:43:01.719Z,57.59
2023-01-29T06:44:12.525Z,57.03
2023-01-29T06:45:24.236Z,58.89
2023-01-29T06:48:28.678Z,64.02
2023-01-29T06:49:39.587Z,64.66
2023-01-29T06:50:50.963Z,63.14
2023-01-29T06:52:01.822Z,59.90
2023-01-29T06:52:34.725Z,59.22
2023-01-29T06:53:07.672Z,58.19
2023-01-29T06:54:19.960Z,56.95
2023-01-29T06:56:08.819Z,59.38
2023-01-29T06:56:41.886Z,59.94
2023-01-29T06:57:52.850Z,61.99
2023-01-29T06:58:25.925Z,63.16
2023-01-29T06:58:58.907Z,63.99
2023-01-29T07:00:10.670Z,64.34
2023-01-29T07:01:35.158Z,61.72
2023-01-29T07:02:50.226Z,59.64
2023-01-29T07:03:23.298Z,58.67
2023-01-29T07:03:56.252Z,58.07
2023-01-29T07:05:07.492Z,57.44
2023-01-29T07:05:40.413Z,57.90
2023-01-29T07:06:51.067Z,59.54
2023-01-29T07:08:39.610Z,62.44
2023-01-29T07:09:16.433Z,63.71
2023-01-29T07:09:49.349Z,64.32
2023-01-29T07:10:22.142Z,64.61
2023-01-29T07:11:39.855Z,62.67
2023-01-29T07:12:50.699Z,60.55
2023-01-29T07:13:23.671Z,59.55
2023-01-29T07:13:57.080Z,58.55
2023-01-29T07:14:30.026Z,57.52
2023-01-29T07:15:03.001Z,57.16
2023-01-29T07:15:37.263Z,57.12
2023-01-29T07:16:10.322Z,57.89
2023-01-29T07:18:41.783Z,61.26
2023-01-29T07:19:14.802Z,62.48
2023-01-29T07:19:47.717Z,63.29
2023-01-29T07:20:20.646Z,64.18
2023-01-29T07:22:09.189Z,62.34
2023-01-29T07:22:42.161Z,61.41
2023-01-29T07:25:09.429Z,56.70
2023-01-29T07:26:20.376Z,56.98
2023-01-29T07:27:31.759Z,59.51
2023-01-29T07:29:58.223Z,62.84
2023-01-29T07:31:09.389Z,65.10
2023-01-29T07:32:20.136Z,62.73
2023-01-29T07:32:53.186Z,61.49
2023-01-29T07:33:26.159Z,60.88
2023-01-29T07:33:59.131Z,59.64
2023-01-29T07:35:48.392Z,56.82
2023-01-29T07:36:21.366Z,56.91
2023-01-29T07:36:54.643Z,57.39
2023-01-29T07:37:27.619Z,58.27
2023-01-29T07:38:00.534Z,59.32
2023-01-29T07:39:11.144Z,60.77
2023-01-29T07:39:44.424Z,61.49
2023-01-29T07:40:18.078Z,62.42
2023-01-29T07:41:32.048Z,64.40
2023-01-29T07:42:44.243Z,64.48
2023-01-29T07:43:17.331Z,62.35
2023-01-29T07:43:50.297Z,61.03
2023-01-29T07:44:23.363Z,60.08
2023-01-29T07:44:56.352Z,59.69
2023-01-29T07:45:29.984Z,58.45
2023-01-29T07:46:04.219Z,57.15
2023-01-29T07:46:37.202Z,56.62
2023-01-29T07:47:10.173Z,56.53
2023-01-29T07:47:43.145Z,56.68
2023-01-29T07:48:16.021Z,57.08
2023-01-29T07:49:26.779Z,59.54
2023-01-29T07:50:37.637Z,61.22
2023-01-29T07:51:10.608Z,62.06
2023-01-29T07:52:59.257Z,64.27
2023-01-29T07:53:32.960Z,64.05
2023-01-29T07:54:06.039Z,63.29
2023-01-29T07:54:38.995Z,62.44
2023-01-29T07:55:49.860Z,60.69
2023-01-29T07:57:00.514Z,57.35
2023-01-29T07:58:11.270Z,56.32
2023-01-29T07:59:21.873Z,57.48
2023-01-29T08:01:10.622Z,60.49
2023-01-29T08:03:06.696Z,63.69
2023-01-29T08:04:17.558Z,63.71
2023-01-29T08:04:50.632Z,63.10
2023-01-29T08:06:01.801Z,60.33
2023-01-29T08:08:06.143Z,56.95
2023-01-29T08:09:17.819Z,57.30
2023-01-29T08:09:50.770Z,57.90
2023-01-29T08:11:02.960Z,59.40
2023-01-29T08:11:35.934Z,60.20
2023-01-29T08:12:08.939Z,60.75
2023-01-29T08:13:19.580Z,62.61
2023-01-29T08:13:52.802Z,63.23
2023-01-29T08:15:47.637Z,62.91
2023-01-29T08:16:58.245Z,60.85
2023-01-29T08:17:31.161Z,58.38
2023-01-29T08:18:47.831Z,56.51
2023-01-29T08:19:58.524Z,57.23
2023-01-29T08:20:31.486Z,58.02
2023-01-29T08:22:19.883Z,59.52
2023-01-29T08:24:22.224Z,63.01
2023-01-29T08:26:10.843Z,63.23
2023-01-29T08:27:59.701Z,59.30
2023-01-29T08:28:32.775Z,58.19
2023-01-29T08:29:43.630Z,56.38
2023-01-29T08:30:17.652Z,56.55
2023-01-29T08:30:51.584Z,56.35
2023-01-29T08:32:40.578Z,58.76
2023-01-29T08:33:52.857Z,60.93
2023-01-29T08:35:03.806Z,62.52
2023-01-29T08:35:37.117Z,63.45
2023-01-29T08:36:10.526Z,63.90
2023-01-29T08:38:39.288Z,61.54
2023-01-29T08:39:12.260Z,60.06
2023-01-29T08:41:39.100Z,56.48
2023-01-29T08:42:49.862Z,57.40
2023-01-29T08:43:22.887Z,58.61
2023-01-29T08:43:56.010Z,59.05
2023-01-29T08:44:28.984Z,59.59
2023-01-29T08:46:21.643Z,62.08
2023-01-29T08:46:57.580Z,62.88
2023-01-29T08:48:08.634Z,63.82
2023-01-29T08:48:41.607Z,63.20
2023-01-29T08:51:51.766Z,56.84
2023-01-29T08:53:04.490Z,56.65
2023-01-29T08:53:37.354Z,57.68
2023-01-29T08:54:10.412Z,58.46
2023-01-29T08:54:43.230Z,59.15
2023-01-29T08:55:16.392Z,59.82
2023-01-29T08:56:27.424Z,61.68
2023-01-29T08:57:38.932Z,63.16
2023-01-29T08:58:50.274Z,63.88
2023-01-29T09:00:01.033Z,61.89
2023-01-29T09:01:51.317Z,57.23
2023-01-29T09:03:03.347Z,56.66
2023-01-29T09:03:36.384Z,57.15
2023-01-29T09:04:09.454Z,57.53
2023-01-29T09:04:42.429Z,58.07
2023-01-29T09:05:53.225Z,59.60
2023-01-29T09:06:26.188Z,60.52
2023-01-29T09:06:59.241Z,61.25
2023-01-29T09:07:32.325Z,62.00
2023-01-29T09:08:05.896Z,62.46
2023-01-29T09:08:39.177Z,63.27
2023-01-29T09:09:12.075Z,63.79
2023-01-29T09:11:01.005Z,61.98
2023-01-29T09:12:11.760Z,58.75
2023-01-29T09:13:22.525Z,56.92
2023-01-29T09:13:55.352Z,56.58
2023-01-29T09:14:28.580Z,57.13
2023-01-29T09:15:01.583Z,57.46
2023-01-29T09:16:12.202Z,58.52
2023-01-29T09:19:20.104Z,61.87
2023-01-29T09:19:53.314Z,62.95
2023-01-29T09:20:26.256Z,63.58
2023-01-29T09:20:59.338Z,64.11
2023-01-29T09:22:48.180Z,61.17
2023-01-29T09:23:58.937Z,58.25
2023-01-29T09:24:32.876Z,56.75
2023-01-29T09:25:06.420Z,56.15
2023-01-29T09:25:39.501Z,56.28
2023-01-29T09:26:50.258Z,57.24
2023-01-29T09:28:01.218Z,58.27
2023-01-29T09:29:11.975Z,60.52
2023-01-29T09:29:44.948Z,60.59
2023-01-29T09:30:18.756Z,61.67
2023-01-29T09:31:29.706Z,62.66
2023-01-29T09:33:20.123Z,61.79
2023-01-29T09:33:53.067Z,61.23
2023-01-29T09:34:26.038Z,59.18
2023-01-29T09:34:58.955Z,57.80
2023-01-29T09:36:47.868Z,56.68
2023-01-29T09:37:23.460Z,56.81
2023-01-29T09:37:57.085Z,57.80
2023-01-29T09:39:41.738Z,59.83
2023-01-29T09:40:38.880Z,60.23
2023-01-29T09:41:24.046Z,61.12
2023-01-29T09:42:02.063Z,62.43
2023-01-29T09:42:41.356Z,62.51
2023-01-29T09:43:23.848Z,63.18
2023-01-29T09:44:00.145Z,62.57
2023-01-29T09:44:41.976Z,61.13
2023-01-29T09:45:16.763Z,60.69
2023-01-29T09:46:02.197Z,58.99
2023-01-29T09:51:05.030Z,59.97
2023-01-29T09:53:07.423Z,61.70
2023-01-29T09:53:43.783Z,62.22
2023-01-29T09:54:18.148Z,63.39
2023-01-29T09:55:07.802Z,64.23
2023-01-29T09:55:50.968Z,64.15
2023-01-29T09:56:28.965Z,63.16
2023-01-29T09:57:39.912Z,59.75
2023-01-29T09:59:40.965Z,57.10
2023-01-29T10:00:16.860Z,57.24
2023-01-29T10:01:11.238Z,57.49
2023-01-29T10:01:50.761Z,58.68
2023-01-29T10:03:43.352Z,61.60
2023-01-29T10:04:25.263Z,62.40
2023-01-29T10:05:18.931Z,63.04
2023-01-29T10:06:33.929Z,63.46
2023-01-29T10:08:34.212Z,60.14
2023-01-29T10:09:30.263Z,58.91
2023-01-29T10:11:39.966Z,57.12
2023-01-29T10:12:16.160Z,58.26
2023-01-29T10:13:23.433Z,59.56
2023-01-29T10:14:19.959Z,60.70
2023-01-29T10:15:18.371Z,61.32
2023-01-29T10:16:42.918Z,64.07
2023-01-29T10:17:48.147Z,63.95
2023-01-29T10:18:48.345Z,61.90
2023-01-29T10:19:35.350Z,60.71
2023-01-29T10:20:39.571Z,58.07
2023-01-29T10:21:30.629Z,56.67
2023-01-29T10:22:42.131Z,56.52
2023-01-29T10:23:37.232Z,57.46
2023-01-29T10:24:28.793Z,59.25
2023-01-29T10:25:42.965Z,60.96
2023-01-29T10:26:15.978Z,62.00
2023-01-29T10:26:49.940Z,62.61
2023-01-29T10:27:22.858Z,62.97
2023-01-29T10:27:57.736Z,63.74
2023-01-29T10:28:43.345Z,63.37
2023-01-29T10:29:18.291Z,62.55
2023-01-29T10:30:40.808Z,60.66
2023-01-29T10:31:28.173Z,58.39
2023-01-29T10:32:06.224Z,56.82
2023-01-29T10:33:48.791Z,56.59
2023-01-29T10:34:45.972Z,58.34
2023-01-29T10:37:41.716Z,62.24
2023-01-29T10:38:40.245Z,62.51
2023-01-29T10:40:47.161Z,61.73
2023-01-29T10:42:06.901Z,58.81
2023-01-29T10:43:29.059Z,56.57
2023-01-29T10:44:33.366Z,57.09
2023-01-29T10:45:21.799Z,58.12
2023-01-29T11:21:29.882Z,62.41
2023-01-29T11:22:38.020Z,64.16
2023-01-29T11:23:28.611Z,64.13
2023-01-29T11:24:12.085Z,62.60
2023-01-29T11:24:45.856Z,60.66
2023-01-29T11:25:58.951Z,58.54
2023-01-29T11:26:33.725Z,57.99
2023-01-29T11:27:40.312Z,57.62
2023-01-29T11:28:13.268Z,58.53
2023-01-29T11:28:47.976Z,59.13
2023-01-29T11:29:45.152Z,60.15
2023-01-29T11:32:15.313Z,64.38
2023-01-29T11:33:09.350Z,64.41
2023-01-29T11:33:42.217Z,63.72
2023-01-29T11:34:33.464Z,62.50
2023-01-29T11:35:27.085Z,60.54
2023-01-29T11:35:59.902Z,59.54
2023-01-29T11:36:35.168Z,58.74
2023-01-29T11:37:16.037Z,57.91
2023-01-29T11:37:49.025Z,57.68
2023-01-29T11:38:24.189Z,58.03
2023-01-29T11:39:09.411Z,58.32
2023-01-29T11:40:37.888Z,60.55
2023-01-29T11:41:22.307Z,62.12
2023-01-29T11:41:58.176Z,63.37
2023-01-29T11:42:31.532Z,64.03
2023-01-29T11:43:26.742Z,64.05
2023-01-29T11:44:00.738Z,63.30
2023-01-29T11:46:13.954Z,59.69
2023-01-29T11:50:20.333Z,60.13
2023-01-29T11:50:57.604Z,61.32
2023-01-29T11:52:09.444Z,63.40
2023-01-29T11:53:45.212Z,64.17
2023-01-29T11:54:18.278Z,63.09
2023-01-29T11:54:53.807Z,62.45
2023-01-29T11:55:29.609Z,61.71
2023-01-29T11:56:16.536Z,60.36
2023-01-29T11:56:51.907Z,59.10
2023-01-29T11:58:29.452Z,56.82
2023-01-29T11:59:48.575Z,57.73
2023-01-29T12:02:26.796Z,61.57
2023-01-29T12:03:18.568Z,62.32
2023-01-29T12:04:31.138Z,64.08
2023-01-29T12:05:07.201Z,63.94
2023-01-29T12:05:40.722Z,62.75
2023-01-29T12:07:02.892Z,60.32
2023-01-29T12:08:17.395Z,59.35
2023-01-29T12:08:58.190Z,57.91
2023-01-29T12:10:29.852Z,58.16
2023-01-29T12:11:16.312Z,58.94
2023-01-29T12:11:49.307Z,60.50
2023-01-29T12:12:25.350Z,61.81
2023-01-29T12:13:27.817Z,62.79
2023-01-29T12:14:05.289Z,64.02
2023-01-29T12:14:38.978Z,63.59
2023-01-29T12:15:17.530Z,62.97
2023-01-29T12:15:50.911Z,62.71
2023-01-29T12:19:24.778Z,57.26
2023-01-29T12:20:52.640Z,58.54
2023-01-29T12:21:45.685Z,59.37
2023-01-29T12:22:43.299Z,61.12
2023-01-29T12:24:25.220Z,62.48
2023-01-29T12:25:58.305Z,63.57
2023-01-29T12:26:35.698Z,63.58
2023-01-29T12:27:38.034Z,60.81
2023-01-29T12:28:55.675Z,59.29
2023-01-29T12:29:41.537Z,58.07
2023-01-29T12:31:58.445Z,59.81
2023-01-29T12:33:13.522Z,61.23
2023-01-29T12:34:04.912Z,63.54
2023-01-29T12:35:33.800Z,64.45
2023-01-29T12:36:17.417Z,63.25
2023-01-29T12:36:57.105Z,62.43
2023-01-29T12:37:38.723Z,62.25
2023-01-29T12:38:19.101Z,60.67
2023-01-29T12:38:52.251Z,58.99
2023-01-29T12:40:03.340Z,58.23
2023-01-29T12:43:07.663Z,61.77
2023-01-29T12:43:43.881Z,63.14
2023-01-29T12:44:20.163Z,64.28
2023-01-29T12:44:59.865Z,65.15
2023-01-29T12:46:19.121Z,63.81
2023-01-29T12:46:54.916Z,62.80
2023-01-29T12:47:33.885Z,61.43
2023-01-29T12:48:09.551Z,60.49
2023-01-29T12:48:42.592Z,59.32
2023-01-29T12:49:17.544Z,59.11
2023-01-29T12:52:14.557Z,59.53
2023-01-29T12:52:52.340Z,60.39
2023-01-29T12:53:25.414Z,61.85
2023-01-29T12:59:43.071Z,61.50
2023-01-29T13:00:22.617Z,58.00
2023-01-29T13:00:57.445Z,57.39
2023-01-29T13:01:33.695Z,57.39
2023-01-29T13:02:09.706Z,57.32
2023-01-29T13:03:46.685Z,58.79
2023-01-29T13:05:18.226Z,61.65
2023-01-29T13:06:31.631Z,63.70
2023-01-29T13:07:16.291Z,64.80
2023-01-29T13:07:52.273Z,65.49
2023-01-29T13:08:29.453Z,64.05
2023-01-29T13:10:27.877Z,60.52
2023-01-29T13:12:21.422Z,58.27
2023-01-29T13:13:56.881Z,57.04
2023-01-29T13:14:41.184Z,57.84
2023-01-29T13:15:21.892Z,59.22
2023-01-29T13:17:34.073Z,62.08
2023-01-29T13:18:31.469Z,64.12
2023-01-29T13:19:24.148Z,65.33
2023-01-29T13:19:58.636Z,64.67
2023-01-29T13:21:15.671Z,62.41
2023-01-29T13:21:48.586Z,61.49
2023-01-29T13:22:29.057Z,60.70
2023-01-29T13:23:28.028Z,59.64
2023-01-29T13:25:59.036Z,59.19
2023-01-29T13:26:32.767Z,60.16
2023-01-29T13:30:39.129Z,64.65
2023-01-29T13:32:10.905Z,62.07
2023-01-29T13:32:51.480Z,61.41
2023-01-29T13:34:13.582Z,59.02
2023-01-29T13:34:47.247Z,58.19
2023-01-29T13:35:20.353Z,58.28
2023-01-29T13:35:58.458Z,58.76
2023-01-29T13:37:54.431Z,61.96
2023-01-29T13:38:29.471Z,62.46
2023-01-29T13:39:06.693Z,63.22
2023-01-29T13:41:04.025Z,64.52
2023-01-29T13:41:38.755Z,63.28
2023-01-29T13:42:38.663Z,62.93
2023-01-29T13:44:28.424Z,58.69
2023-01-29T13:46:21.684Z,57.88
2023-01-29T13:47:05.320Z,59.11
2023-01-29T13:49:22.459Z,62.68
2023-01-29T13:50:11.076Z,63.68
2023-01-29T13:52:01.267Z,63.03
2023-01-29T13:53:08.362Z,61.89
2023-01-29T13:56:42.187Z,58.24
2023-01-29T13:59:21.806Z,62.26
2023-01-29T14:00:33.150Z,64.24
2023-01-29T14:01:06.110Z,64.36
2023-01-29T14:01:48.231Z,64.17
2023-01-29T14:02:26.166Z,63.24
2023-01-29T14:03:01.872Z,61.54
2023-01-29T14:04:03.690Z,60.93